createdAt,value
2018-02-22T00:00:53.612Z,99.90
2018-02-22T00:01:56.906Z,99.90
2018-02-22T00:02:59.410Z,99.90
2018-02-22T00:04:01.929Z,99.90
2018-02-22T00:05:04.460Z,99.90
2018-02-22T00:06:06.980Z,99.90
2018-02-22T00:07:09.603Z,99.90
2018-02-22T00:08:12.911Z,99.90
2018-02-22T00:09:15.507Z,99.90
2018-02-22T00:10:18.022Z,99.90
2018-02-22T00:11:20.617Z,99.90
2018-02-22T00:12:23.920Z,99.90
2018-02-22T00:13:26.439Z,99.90
2018-02-22T00:14:28.980Z,99.90
2018-02-22T00:15:31.495Z,99.90
2018-02-22T00:16:34.023Z,99.90
2018-02-22T00:17:36.622Z,99.90
2018-02-22T00:18:39.157Z,99.90
2018-02-22T00:19:41.667Z,99.90
2018-02-22T00:20:44.208Z,99.90
2018-02-22T00:21:46.742Z,99.90
2018-02-22T00:22:50.779Z,99.90
2018-02-22T00:23:53.679Z,99.90
2018-02-22T00:24:56.939Z,99.90
2018-02-22T00:26:00.329Z,99.90
2018-02-22T00:27:02.826Z,99.90
2018-02-22T00:28:05.341Z,99.90
2018-02-22T00:29:08.728Z,99.90
2018-02-22T00:30:11.262Z,99.90
2018-02-22T00:31:13.787Z,99.90
2018-02-22T00:32:16.289Z,99.90
2018-02-22T00:33:18.792Z,99.90
2018-02-22T00:34:21.354Z,99.90
2018-02-22T00:35:23.851Z,99.90
2018-02-22T00:36:26.361Z,99.90
2018-02-22T00:37:29.664Z,99.90
2018-02-22T00:38:32.160Z,99.90
2018-02-22T00:39:34.706Z,99.90
2018-02-22T00:40:37.214Z,99.90
2018-02-22T00:41:39.711Z,99.90
2018-02-22T00:42:43.038Z,99.90
2018-02-22T00:43:46.719Z,99.90
2018-02-22T00:44:49.255Z,99.90
2018-02-22T00:45:51.796Z,99.90
2018-02-22T00:46:54.310Z,99.90
2018-02-22T00:47:56.833Z,99.90
2018-02-22T00:48:59.411Z,99.90
2018-02-22T00:50:01.928Z,99.90
2018-02-22T00:51:05.954Z,99.90
2018-02-22T00:52:08.510Z,99.90
2018-02-22T00:53:11.054Z,99.90
2018-02-22T00:54:14.350Z,99.90
2018-02-22T00:55:16.879Z,99.90
2018-02-22T00:56:19.387Z,99.90
2018-02-22T00:57:21.944Z,99.90
2018-02-22T00:58:24.486Z,99.90
2018-02-22T00:59:28.494Z,99.90
2018-02-22T01:00:31.072Z,99.90
2018-02-22T01:01:34.066Z,99.90
2018-02-22T01:02:36.634Z,99.90
2018-02-22T01:03:39.152Z,99.90
2018-02-22T01:04:41.649Z,99.90
2018-02-22T01:05:44.196Z,99.90
2018-02-22T01:06:46.768Z,99.90
2018-02-22T01:07:50.030Z,99.90
2018-02-22T01:08:52.605Z,99.90
2018-02-22T01:09:55.162Z,99.90
2018-02-22T01:10:58.458Z,99.90
2018-02-22T01:12:00.987Z,99.90
2018-02-22T01:13:03.509Z,99.90
2018-02-22T01:14:06.119Z,99.90
2018-02-22T01:15:08.671Z,99.90
2018-02-22T01:16:11.192Z,99.90
2018-02-22T01:17:13.807Z,99.90
2018-02-22T01:18:16.341Z,99.90
2018-02-22T01:19:18.844Z,99.90
2018-02-22T01:20:21.384Z,99.90
2018-02-22T01:21:23.870Z,99.90
2018-02-22T01:22:27.137Z,99.90
2018-02-22T01:23:29.638Z,99.90
2018-02-22T01:24:32.897Z,99.90
2018-02-22T01:25:35.650Z,99.90
2018-02-22T01:26:38.238Z,99.90
2018-02-22T01:27:41.516Z,99.90
2018-02-22T01:28:44.034Z,99.90
2018-02-22T01:29:46.660Z,99.90
2018-02-22T01:30:49.177Z,99.90
2018-02-22T01:31:51.719Z,99.90
2018-02-22T01:32:54.210Z,99.90
2018-02-22T01:33:57.605Z,99.90
2018-02-22T01:35:00.102Z,99.90
2018-02-22T01:36:02.645Z,99.90
2018-02-22T01:37:05.130Z,99.90
2018-02-22T01:38:08.417Z,99.90
2018-02-22T01:39:10.902Z,99.90
2018-02-22T01:40:14.186Z,99.90
2018-02-22T01:41:16.720Z,99.90
2018-02-22T01:42:19.257Z,99.90
2018-02-22T01:43:21.808Z,99.90
2018-02-22T01:44:25.229Z,99.90
2018-02-22T01:45:27.726Z,99.90
2018-02-22T01:46:30.271Z,99.90
2018-02-22T01:47:32.804Z,99.90
2018-02-22T01:48:35.353Z,99.90
2018-02-22T01:49:39.419Z,99.90
2018-02-22T01:50:42.013Z,99.90
2018-02-22T01:51:44.521Z,99.90
2018-02-22T01:52:47.048Z,99.90
2018-02-22T01:53:49.546Z,99.90
2018-02-22T01:54:52.798Z,99.90
2018-02-22T01:55:55.311Z,99.90
2018-02-22T01:56:58.636Z,99.90
2018-02-22T01:58:01.252Z,99.90
2018-02-22T01:59:03.773Z,99.90
2018-02-22T02:00:07.839Z,99.90
2018-02-22T02:01:11.513Z,99.90
2018-02-22T02:02:14.037Z,99.90
2018-02-22T02:03:16.785Z,99.90
2018-02-22T02:04:20.575Z,99.90
2018-02-22T02:05:23.104Z,99.90
2018-02-22T02:06:25.647Z,99.90
2018-02-22T02:07:28.460Z,99.90
2018-02-22T02:08:30.961Z,99.90
2018-02-22T02:09:33.478Z,99.90
2018-02-22T02:10:36.759Z,99.90
2018-02-22T02:11:39.406Z,99.90
2018-02-22T02:12:42.026Z,99.90
2018-02-22T02:13:44.541Z,99.90
2018-02-22T02:14:47.066Z,99.90
2018-02-22T02:15:49.574Z,99.90
2018-02-22T02:16:52.080Z,99.90
2018-02-22T02:17:55.518Z,99.90
2018-02-22T02:18:58.789Z,99.90
2018-02-22T02:20:01.302Z,99.90
2018-02-22T02:21:03.967Z,99.90
2018-02-22T02:22:07.222Z,99.90
2018-02-22T02:23:09.757Z,99.90
2018-02-22T02:24:13.787Z,99.90
2018-02-22T02:25:16.312Z,99.90
2018-02-22T02:26:18.808Z,99.90
2018-02-22T02:27:21.318Z,99.90
2018-02-22T02:28:24.626Z,99.90
2018-02-22T02:29:27.158Z,99.90
2018-02-22T02:30:29.661Z,99.90
2018-02-22T02:31:32.292Z,99.90
2018-02-22T02:32:34.791Z,99.90
2018-02-22T02:33:38.038Z,99.90
2018-02-22T02:34:40.545Z,99.90
2018-02-22T02:35:43.850Z,99.90
2018-02-22T02:36:46.344Z,99.90
2018-02-22T02:37:48.934Z,99.90
2018-02-22T02:38:52.218Z,99.90
2018-02-22T02:39:54.724Z,99.90
2018-02-22T02:40:57.265Z,99.90
2018-02-22T02:41:59.799Z,99.90
2018-02-22T02:43:02.297Z,99.90
2018-02-22T02:44:05.145Z,99.90
2018-02-22T02:45:07.699Z,99.90
2018-02-22T02:46:10.220Z,99.90
2018-02-22T02:47:12.715Z,99.90
2018-02-22T02:48:15.325Z,99.90
2018-02-22T02:49:18.587Z,99.90
2018-02-22T02:50:21.095Z,99.90
2018-02-22T02:51:24.433Z,99.90
2018-02-22T02:52:27.721Z,99.90
2018-02-22T02:53:30.224Z,99.90
2018-02-22T02:54:32.732Z,99.90
2018-02-22T02:55:35.263Z,99.90
2018-02-22T02:56:38.558Z,99.90
2018-02-22T02:57:41.063Z,99.90
2018-02-22T02:58:43.591Z,99.90
2018-02-22T02:59:46.122Z,99.90
2018-02-22T03:00:48.660Z,99.90
2018-02-22T03:01:51.254Z,99.90
2018-02-22T03:02:54.544Z,99.90
2018-02-22T03:03:57.145Z,99.90
2018-02-22T03:04:59.677Z,99.90
2018-02-22T03:06:02.188Z,99.90
2018-02-22T03:07:04.732Z,99.90
2018-02-22T03:08:07.233Z,99.90
2018-02-22T03:09:09.830Z,99.90
2018-02-22T03:10:13.527Z,99.90
2018-02-22T03:11:16.020Z,99.90
2018-02-22T03:12:18.654Z,99.90
2018-02-22T03:13:21.159Z,99.90
2018-02-22T03:14:24.430Z,99.90
2018-02-22T03:15:26.987Z,99.90
2018-02-22T03:16:29.538Z,99.90
2018-02-22T03:17:32.140Z,99.90
2018-02-22T03:18:34.651Z,99.90
2018-02-22T03:19:37.190Z,99.90
2018-02-22T03:20:39.709Z,99.90
2018-02-22T03:21:42.236Z,99.90
2018-02-22T03:22:44.762Z,99.90
2018-02-22T03:23:47.303Z,99.90
2018-02-22T03:24:49.839Z,99.90
2018-02-22T03:25:52.454Z,99.90
2018-02-22T03:26:55.080Z,99.90
2018-02-22T03:27:57.593Z,99.90
2018-02-22T03:29:00.180Z,99.90
2018-02-22T03:30:03.446Z,99.90
2018-02-22T03:31:05.985Z,99.90
2018-02-22T03:32:08.569Z,99.90
2018-02-22T03:33:11.890Z,99.90
2018-02-22T03:34:14.497Z,99.90
2018-02-22T03:35:17.013Z,99.90
2018-02-22T03:36:19.556Z,99.90
2018-02-22T03:37:22.062Z,99.90
2018-02-22T03:38:24.586Z,99.90
2018-02-22T03:39:27.070Z,99.90
2018-02-22T03:40:30.334Z,99.90
2018-02-22T03:41:32.837Z,99.90
2018-02-22T03:42:36.100Z,99.90
2018-02-22T03:43:38.630Z,99.90
2018-02-22T03:44:41.195Z,99.90
2018-02-22T03:45:43.713Z,99.90
2018-02-22T03:46:46.235Z,99.90
2018-02-22T03:47:48.804Z,99.90
2018-02-22T03:48:51.339Z,99.90
2018-02-22T03:49:54.648Z,99.90
2018-02-22T03:50:57.142Z,99.90
2018-02-22T03:52:00.375Z,99.90
2018-02-22T03:53:03.651Z,99.90
2018-02-22T03:54:06.189Z,99.90
2018-02-22T03:55:08.720Z,99.90
2018-02-22T03:56:11.423Z,99.90
2018-02-22T03:57:13.947Z,99.90
2018-02-22T03:58:16.441Z,99.90
2018-02-22T03:59:18.942Z,99.90
2018-02-22T04:00:21.529Z,99.90
2018-02-22T04:01:24.034Z,99.90
2018-02-22T04:02:26.584Z,99.90
2018-02-22T04:03:29.244Z,99.90
2018-02-22T04:04:31.755Z,99.90
2018-02-22T04:05:34.363Z,99.90
2018-02-22T04:06:36.912Z,99.90
2018-02-22T04:07:39.463Z,99.90
2018-02-22T04:08:42.095Z,99.90
2018-02-22T04:09:44.669Z,99.90
2018-02-22T04:10:47.185Z,99.90
2018-02-22T04:11:49.799Z,99.90
2018-02-22T04:12:52.325Z,99.90
2018-02-22T04:13:54.868Z,99.90
2018-02-22T04:14:57.369Z,99.90
2018-02-22T04:16:00.245Z,99.90
2018-02-22T04:17:02.776Z,99.90
2018-02-22T04:18:05.309Z,99.90
2018-02-22T04:19:07.874Z,99.90
2018-02-22T04:20:11.191Z,99.90
2018-02-22T04:21:14.454Z,99.90
2018-02-22T04:22:18.479Z,99.90
2018-02-22T04:23:21.000Z,99.90
2018-02-22T04:24:23.676Z,99.90
2018-02-22T04:25:26.304Z,99.90
2018-02-22T04:26:29.681Z,99.90
2018-02-22T04:27:32.627Z,99.90
2018-02-22T04:28:35.175Z,99.90
2018-02-22T04:29:37.703Z,99.90
2018-02-22T04:30:40.215Z,99.90
2018-02-22T04:31:42.730Z,99.90
2018-02-22T04:32:45.376Z,99.90
2018-02-22T04:33:47.980Z,99.90
2018-02-22T04:34:50.540Z,99.90
2018-02-22T04:35:53.933Z,99.90
2018-02-22T04:36:56.493Z,99.90
2018-02-22T04:37:58.996Z,99.90
2018-02-22T04:39:01.502Z,99.90
2018-02-22T04:40:04.138Z,99.90
2018-02-22T04:41:06.626Z,99.90
2018-02-22T04:42:09.131Z,99.90
2018-02-22T04:43:11.622Z,99.90
2018-02-22T04:44:14.180Z,99.90
2018-02-22T04:45:16.791Z,99.90
2018-02-22T04:46:19.298Z,99.90
2018-02-22T04:47:21.822Z,99.90
2018-02-22T04:48:24.329Z,99.90
2018-02-22T04:49:27.635Z,99.90
2018-02-22T04:50:30.136Z,99.90
2018-02-22T04:51:32.644Z,99.90
2018-02-22T04:52:35.201Z,99.90
2018-02-22T04:53:37.706Z,99.90
2018-02-22T04:54:40.198Z,99.90
2018-02-22T04:55:43.542Z,99.90
2018-02-22T04:56:46.830Z,99.90
2018-02-22T04:57:49.472Z,99.90
2018-02-22T04:58:51.978Z,99.90
2018-02-22T04:59:54.493Z,99.90
2018-02-22T05:00:57.003Z,99.90
2018-02-22T05:02:00.379Z,99.90
2018-02-22T05:03:02.967Z,99.90
2018-02-22T05:04:06.613Z,99.90
2018-02-22T05:05:09.921Z,99.90
2018-02-22T05:06:13.004Z,99.90
2018-02-22T05:07:16.032Z,99.90
2018-02-22T05:08:18.775Z,99.90
2018-02-22T05:09:21.349Z,99.90
2018-02-22T05:10:23.871Z,99.90
2018-02-22T05:11:26.376Z,99.90
2018-02-22T05:12:28.885Z,99.90
2018-02-22T05:13:31.569Z,99.90
2018-02-22T05:14:34.861Z,99.90
2018-02-22T05:15:37.396Z,99.90
2018-02-22T05:16:39.913Z,99.90
2018-02-22T05:17:42.386Z,99.90
2018-02-22T05:18:44.901Z,99.90
2018-02-22T05:19:47.390Z,99.90
2018-02-22T05:20:49.880Z,99.90
2018-02-22T05:21:53.136Z,99.90
2018-02-22T05:22:56.405Z,99.90
2018-02-22T05:23:58.930Z,99.90
2018-02-22T05:25:01.476Z,99.90
2018-02-22T05:26:04.000Z,99.90
2018-02-22T05:27:07.381Z,99.90
2018-02-22T05:28:09.815Z,99.90
2018-02-22T05:29:12.334Z,99.90
2018-02-22T05:30:15.688Z,99.90
2018-02-22T05:31:18.185Z,99.90
2018-02-22T05:32:21.446Z,99.90
2018-02-22T05:33:24.015Z,99.90
2018-02-22T05:34:26.524Z,99.90
2018-02-22T05:35:29.811Z,99.90
2018-02-22T05:36:32.338Z,99.90
2018-02-22T05:37:34.839Z,99.90
2018-02-22T05:38:37.396Z,99.90
2018-02-22T05:39:39.873Z,99.90
2018-02-22T05:40:43.115Z,99.90
2018-02-22T05:41:45.595Z,99.90
2018-02-22T05:42:48.125Z,99.90
2018-02-22T05:43:50.623Z,99.90
2018-02-22T05:44:53.098Z,99.90
2018-02-22T05:45:56.371Z,99.90
2018-02-22T05:46:58.932Z,99.90
2018-02-22T05:48:01.452Z,99.90
2018-02-22T05:49:04.095Z,99.90
2018-02-22T05:50:06.763Z,99.90
2018-02-22T05:51:10.046Z,99.90
2018-02-22T05:52:12.664Z,99.90
2018-02-22T05:53:15.249Z,99.90
2018-02-22T05:54:18.526Z,99.90
2018-02-22T05:55:21.064Z,99.90
2018-02-22T05:56:23.654Z,99.90
2018-02-22T05:57:26.131Z,99.90
2018-02-22T05:58:28.674Z,99.90
2018-02-22T05:59:31.333Z,99.90
2018-02-22T06:00:33.960Z,99.90
2018-02-22T06:01:37.267Z,99.90
2018-02-22T06:02:39.785Z,99.90
2018-02-22T06:03:43.219Z,99.90
2018-02-22T06:04:45.982Z,99.90
2018-02-22T06:05:49.231Z,99.90
2018-02-22T06:06:51.707Z,99.90
2018-02-22T06:07:54.255Z,99.90
2018-02-22T06:08:56.808Z,99.90
2018-02-22T06:10:00.767Z,99.90
2018-02-22T06:11:04.864Z,99.90
2018-02-22T06:12:07.690Z,99.90
2018-02-22T06:13:10.202Z,99.90
2018-02-22T06:14:13.440Z,99.90
2018-02-22T06:15:16.830Z,99.90
2018-02-22T06:16:19.367Z,99.90
2018-02-22T06:17:21.962Z,99.90
2018-02-22T06:18:25.234Z,99.90
2018-02-22T06:19:27.860Z,99.90
2018-02-22T06:20:30.364Z,99.90
2018-02-22T06:21:32.901Z,99.90
2018-02-22T06:22:35.399Z,99.90
2018-02-22T06:23:38.663Z,99.90
2018-02-22T06:24:41.190Z,99.90
2018-02-22T06:25:43.709Z,99.90
2018-02-22T06:26:46.177Z,99.90
2018-02-22T06:27:48.651Z,99.90
2018-02-22T06:28:52.014Z,99.90
2018-02-22T06:29:54.506Z,99.90
2018-02-22T06:30:57.756Z,99.90
2018-02-22T06:32:01.004Z,99.90
2018-02-22T06:33:04.284Z,99.90
2018-02-22T06:34:06.942Z,99.90
2018-02-22T06:35:09.424Z,99.90
2018-02-22T06:36:11.938Z,99.90
2018-02-22T06:37:14.432Z,99.90
2018-02-22T06:38:16.934Z,99.90
2018-02-22T06:39:19.435Z,99.90
2018-02-22T06:40:22.309Z,99.90
2018-02-22T06:41:25.571Z,99.90
2018-02-22T06:42:28.856Z,99.90
2018-02-22T06:43:31.317Z,99.90
2018-02-22T06:44:34.622Z,99.90
2018-02-22T06:45:37.260Z,99.90
2018-02-22T06:46:39.741Z,99.90
2018-02-22T06:47:43.012Z,99.90
2018-02-22T06:48:45.491Z,99.90
2018-02-22T06:49:48.613Z,99.90
2018-02-22T06:50:51.135Z,99.90
2018-02-22T06:51:54.457Z,99.90
2018-02-22T06:52:56.989Z,99.90
2018-02-22T06:54:00.348Z,99.90
2018-02-22T06:55:02.827Z,99.90
2018-02-22T06:56:05.323Z,99.90
2018-02-22T06:57:07.791Z,99.90
2018-02-22T06:58:10.303Z,99.90
2018-02-22T06:59:12.878Z,99.90
2018-02-22T07:00:16.155Z,99.90
2018-02-22T07:01:19.395Z,99.90
2018-02-22T07:02:22.668Z,99.90
2018-02-22T07:03:25.281Z,99.90
2018-02-22T07:04:28.701Z,99.90
2018-02-22T07:05:32.070Z,99.90
2018-02-22T07:06:34.676Z,99.90
2018-02-22T07:07:37.264Z,99.90
2018-02-22T07:08:39.793Z,99.90
2018-02-22T07:09:42.452Z,99.90
2018-02-22T07:10:45.920Z,99.90
2018-02-22T07:11:49.206Z,99.90
2018-02-22T07:12:51.776Z,99.90
2018-02-22T07:13:55.047Z,99.90
2018-02-22T07:14:57.732Z,99.90
2018-02-22T07:16:01.018Z,99.90
2018-02-22T07:17:03.537Z,99.90
2018-02-22T07:18:06.797Z,99.90
2018-02-22T07:19:09.420Z,99.90
2018-02-22T07:20:11.945Z,99.90
2018-02-22T07:21:14.480Z,99.90
2018-02-22T07:22:18.938Z,99.90
2018-02-22T07:23:21.485Z,99.90
2018-02-22T07:24:24.015Z,99.90
2018-02-22T07:25:26.537Z,99.90
2018-02-22T07:26:29.232Z,99.90
2018-02-22T07:27:31.843Z,99.90
2018-02-22T07:28:34.425Z,99.90
2018-02-22T07:29:36.983Z,99.90
2018-02-22T07:30:39.499Z,99.90
2018-02-22T07:31:42.015Z,99.90
2018-02-22T07:32:44.565Z,99.90
2018-02-22T07:33:47.061Z,99.90
2018-02-22T07:34:49.609Z,99.90
2018-02-22T07:35:53.113Z,99.90
2018-02-22T07:36:55.598Z,99.90
2018-02-22T07:37:58.780Z,99.90
2018-02-22T07:39:01.310Z,99.90
2018-02-22T07:40:03.971Z,99.90
2018-02-22T07:41:06.554Z,99.90
2018-02-22T07:42:09.116Z,99.90
2018-02-22T07:43:11.687Z,99.90
2018-02-22T07:44:14.940Z,99.90
2018-02-22T07:45:18.243Z,99.90
2018-02-22T07:46:20.894Z,99.90
2018-02-22T07:47:23.391Z,99.90
2018-02-22T07:48:25.992Z,99.90
2018-02-22T07:49:29.283Z,99.90
2018-02-22T07:50:31.811Z,99.90
2018-02-22T07:51:34.338Z,99.90
2018-02-22T07:52:37.600Z,99.90
2018-02-22T07:53:40.848Z,99.90
2018-02-22T07:54:43.415Z,99.90
2018-02-22T07:55:45.896Z,99.90
2018-02-22T07:56:49.183Z,99.90
2018-02-22T07:57:51.862Z,99.90
2018-02-22T07:58:55.194Z,99.90
2018-02-22T07:59:58.559Z,99.90
2018-02-22T08:01:02.015Z,99.90
2018-02-22T08:02:05.329Z,99.90
2018-02-22T08:03:07.898Z,99.90
2018-02-22T08:04:10.391Z,99.90
2018-02-22T08:05:12.933Z,99.90
2018-02-22T08:06:16.195Z,99.90
2018-02-22T08:07:18.681Z,99.90
2018-02-22T08:08:21.950Z,99.90
2018-02-22T08:09:24.448Z,99.90
2018-02-22T08:10:27.701Z,99.90
2018-02-22T08:11:30.943Z,99.90
2018-02-22T08:12:34.194Z,99.90
2018-02-22T08:13:37.439Z,99.90
2018-02-22T08:14:40.081Z,99.90
2018-02-22T08:15:42.573Z,99.90
2018-02-22T08:16:45.828Z,99.90
2018-02-22T08:17:49.091Z,99.90
2018-02-22T08:18:51.576Z,99.90
2018-02-22T08:19:54.087Z,99.90
2018-02-22T08:20:56.580Z,99.90
2018-02-22T08:21:59.057Z,99.90
2018-02-22T08:23:02.331Z,99.90
2018-02-22T08:24:04.857Z,99.90
2018-02-22T08:25:07.441Z,99.90
2018-02-22T08:26:09.927Z,99.90
2018-02-22T08:27:13.127Z,99.90
2018-02-22T08:28:16.386Z,99.90
2018-02-22T08:29:18.864Z,99.90
2018-02-22T08:30:21.335Z,99.90
2018-02-22T08:31:23.815Z,99.90
2018-02-22T08:32:26.406Z,99.90
2018-02-22T08:33:28.918Z,99.90
2018-02-22T08:34:31.408Z,99.90
2018-02-22T08:35:33.903Z,99.90
2018-02-22T08:36:36.410Z,99.90
2018-02-22T08:37:38.942Z,99.90
2018-02-22T08:38:41.656Z,99.90
2018-02-22T08:39:44.155Z,99.90
2018-02-22T08:40:47.583Z,99.90
2018-02-22T08:41:52.471Z,99.90
2018-02-22T08:42:54.957Z,99.90
2018-02-22T08:43:57.462Z,99.90
2018-02-22T08:44:59.973Z,99.90
2018-02-22T08:46:02.476Z,99.90
2018-02-22T08:47:05.715Z,99.90
2018-02-22T08:48:08.983Z,99.90
2018-02-22T08:49:11.490Z,99.90
2018-02-22T08:50:14.769Z,99.90
2018-02-22T08:51:17.304Z,99.90
2018-02-22T08:52:19.783Z,99.90
2018-02-22T08:53:23.069Z,99.90
2018-02-22T08:54:25.711Z,99.90
2018-02-22T08:55:28.400Z,99.90
2018-02-22T08:56:31.028Z,99.90
2018-02-22T08:57:34.298Z,99.20
2018-02-22T08:58:36.759Z,99.20
2018-02-22T08:59:39.242Z,99.70
2018-02-22T09:00:41.783Z,99.50
2018-02-22T09:01:44.327Z,99.90
2018-02-22T09:02:46.825Z,99.90
2018-02-22T09:03:49.346Z,99.90
2018-02-22T09:04:51.878Z,99.90
2018-02-22T09:05:54.361Z,99.90
2018-02-22T09:06:57.622Z,99.90
2018-02-22T09:08:00.163Z,99.90
2018-02-22T09:09:02.708Z,99.90
2018-02-22T09:10:05.850Z,99.90
2018-02-22T09:11:08.368Z,99.90
2018-02-22T09:12:10.886Z,99.90
2018-02-22T09:13:13.366Z,99.90
2018-02-22T09:14:15.892Z,99.90
2018-02-22T09:15:19.995Z,99.90
2018-02-22T09:16:24.634Z,99.90
2018-02-22T09:17:27.168Z,99.90
2018-02-22T09:18:30.440Z,99.90
2018-02-22T09:19:32.985Z,99.90
2018-02-22T09:20:35.485Z,99.90
2018-02-22T09:21:37.963Z,99.90
2018-02-22T09:22:40.491Z,99.90
2018-02-22T09:23:42.999Z,99.90
2018-02-22T09:24:45.473Z,99.90
2018-02-22T09:25:47.979Z,99.90
2018-02-22T09:26:50.556Z,99.90
2018-02-22T09:27:53.042Z,99.90
2018-02-22T09:28:56.344Z,99.90
2018-02-22T09:29:58.865Z,99.90
2018-02-22T09:31:01.368Z,99.90
2018-02-22T09:32:03.845Z,99.90
2018-02-22T09:33:06.370Z,99.90
2018-02-22T09:34:09.620Z,99.90
2018-02-22T09:35:12.876Z,99.90
2018-02-22T09:36:16.134Z,99.90
2018-02-22T09:37:18.630Z,99.90
2018-02-22T09:38:21.882Z,99.90
2018-02-22T09:39:25.443Z,99.90
2018-02-22T09:40:28.024Z,99.90
2018-02-22T09:41:31.323Z,99.90
2018-02-22T09:42:33.814Z,99.90
2018-02-22T09:43:37.094Z,99.90
2018-02-22T09:44:39.565Z,99.90
2018-02-22T09:45:42.834Z,99.90
2018-02-22T09:46:46.087Z,99.90
2018-02-22T09:47:48.556Z,99.90
2018-02-22T09:48:51.028Z,99.90
2018-02-22T09:49:54.251Z,99.90
2018-02-22T09:50:58.819Z,99.90
2018-02-22T09:52:01.340Z,99.90
2018-02-22T09:53:03.829Z,99.90
2018-02-22T09:54:06.311Z,99.90
2018-02-22T09:55:09.540Z,99.90
2018-02-22T09:56:12.003Z,99.90
2018-02-22T09:57:14.502Z,99.90
2018-02-22T09:58:17.787Z,99.90
2018-02-22T09:59:20.272Z,99.90
2018-02-22T10:00:23.533Z,99.90
2018-02-22T10:01:26.019Z,99.90
2018-02-22T10:02:28.557Z,99.90
2018-02-22T10:03:32.145Z,99.90
2018-02-22T10:04:34.672Z,99.90
2018-02-22T10:05:37.185Z,99.90
2018-02-22T10:06:39.683Z,99.90
2018-02-22T10:07:42.969Z,99.90
2018-02-22T10:08:45.436Z,99.90
2018-02-22T10:09:48.009Z,99.90
2018-02-22T10:10:50.582Z,99.90
2018-02-22T10:11:53.030Z,99.90
2018-02-22T10:12:57.135Z,99.90
2018-02-22T10:13:59.629Z,99.90
2018-02-22T10:15:02.886Z,99.90
2018-02-22T10:16:05.386Z,99.90
2018-02-22T10:17:07.983Z,99.90
2018-02-22T10:18:10.510Z,99.90
2018-02-22T10:19:12.998Z,99.90
2018-02-22T10:20:15.484Z,99.90
2018-02-22T10:21:18.096Z,99.90
2018-02-22T10:22:20.786Z,99.90
2018-02-22T10:23:23.285Z,99.90
2018-02-22T10:24:26.990Z,99.90
2018-02-22T10:25:29.517Z,99.90
2018-02-22T10:26:32.008Z,99.90
2018-02-22T10:27:34.531Z,99.90
2018-02-22T10:28:37.017Z,99.90
2018-02-22T10:29:39.549Z,99.90
2018-02-22T10:30:42.829Z,99.90
2018-02-22T10:31:45.328Z,99.90
2018-02-22T10:32:48.589Z,99.90
2018-02-22T10:33:51.910Z,99.90
2018-02-22T10:34:55.145Z,99.90
2018-02-22T10:35:58.403Z,99.90
2018-02-22T10:37:01.646Z,99.90
2018-02-22T10:38:04.912Z,99.90
2018-02-22T10:39:07.554Z,99.90
2018-02-22T10:40:10.122Z,99.90
2018-02-22T10:41:13.451Z,99.90
2018-02-22T10:42:16.000Z,99.90
2018-02-22T10:43:18.497Z,99.90
2018-02-22T10:44:20.999Z,99.90
2018-02-22T10:45:23.509Z,99.90
2018-02-22T10:46:26.067Z,99.90
2018-02-22T10:47:28.558Z,99.90
2018-02-22T10:48:31.084Z,99.80
2018-02-22T10:49:33.549Z,99.20
2018-02-22T10:50:36.043Z,99.80
2018-02-22T10:51:39.307Z,99.90
2018-02-22T10:52:42.430Z,99.90
2018-02-22T10:53:45.063Z,99.80
2018-02-22T10:54:47.536Z,99.50
2018-02-22T10:55:50.100Z,99.60
2018-02-22T10:56:52.565Z,99.90
2018-02-22T10:57:55.082Z,99.70
2018-02-22T10:58:57.576Z,99.20
2018-02-22T11:00:00.098Z,98.50
2018-02-22T11:01:09.021Z,98.20
2018-02-22T11:02:17.187Z,98.20
2018-02-22T11:03:19.708Z,98.30
2018-02-22T11:04:22.268Z,98.50
2018-02-22T11:05:24.749Z,98.30
2018-02-22T11:06:27.389Z,98.60
2018-02-22T11:07:29.986Z,98.10
2018-02-22T11:08:32.537Z,98.50
2018-02-22T11:09:35.119Z,98.30
2018-02-22T11:10:37.693Z,98.20
2018-02-22T11:11:40.198Z,98.20
2018-02-22T11:12:42.695Z,98.80
2018-02-22T11:13:45.180Z,99.10
2018-02-22T11:14:47.674Z,99.30
2018-02-22T11:15:50.409Z,98.60
2018-02-22T11:16:52.898Z,98.50
2018-02-22T11:17:55.395Z,98.80
2018-02-22T11:18:57.902Z,98.70
2018-02-22T11:20:01.182Z,98.90
2018-02-22T11:21:03.685Z,98.90
2018-02-22T11:22:06.939Z,99.00
2018-02-22T11:23:10.196Z,98.90
2018-02-22T11:24:12.729Z,98.90
2018-02-22T11:25:15.259Z,98.90
2018-02-22T11:26:17.742Z,99.00
2018-02-22T11:27:20.206Z,99.50
2018-02-22T11:28:22.681Z,99.90
2018-02-22T11:29:25.185Z,99.90
2018-02-22T11:30:27.651Z,99.40
2018-02-22T11:31:31.298Z,99.90
2018-02-22T11:32:33.766Z,99.80
2018-02-22T11:33:36.301Z,98.80
2018-02-22T11:34:38.800Z,98.10
2018-02-22T11:35:41.295Z,98.10
2018-02-22T11:36:44.536Z,98.10
2018-02-22T11:37:47.236Z,98.10
2018-02-22T11:38:49.747Z,98.40
2018-02-22T11:39:52.235Z,97.90
2018-02-22T11:40:55.475Z,98.20
2018-02-22T11:41:58.723Z,98.70
2018-02-22T11:43:01.295Z,98.60
2018-02-22T11:44:03.805Z,98.50
2018-02-22T11:45:06.325Z,99.10
2018-02-22T11:46:08.859Z,98.20
2018-02-22T11:47:11.339Z,98.90
2018-02-22T11:48:13.934Z,98.60
2018-02-22T11:49:16.425Z,98.90
2018-02-22T11:50:18.907Z,98.80
2018-02-22T11:51:22.154Z,97.40
2018-02-22T11:52:24.867Z,97.50
2018-02-22T11:53:27.444Z,98.10
2018-02-22T11:54:29.997Z,97.60
2018-02-22T11:55:32.521Z,97.30
2018-02-22T11:56:34.988Z,97.60
2018-02-22T11:57:37.472Z,97.80
2018-02-22T11:58:39.983Z,97.60
2018-02-22T11:59:42.503Z,97.60
2018-02-22T12:00:45.012Z,96.80
2018-02-22T12:01:49.235Z,97.80
2018-02-22T12:02:51.737Z,97.70
2018-02-22T12:03:54.215Z,97.90
2018-02-22T12:04:57.584Z,97.20
2018-02-22T12:06:00.080Z,97.10
2018-02-22T12:07:02.605Z,96.70
2018-02-22T12:08:05.111Z,97.30
2018-02-22T12:09:07.583Z,97.80
2018-02-22T12:10:10.071Z,97.60
2018-02-22T12:11:12.592Z,97.20
2018-02-22T12:12:15.860Z,98.10
2018-02-22T12:13:19.097Z,97.90
2018-02-22T12:14:22.369Z,96.50
2018-02-22T12:15:24.868Z,96.50
2018-02-22T12:16:28.110Z,95.90
2018-02-22T12:17:31.402Z,95.80
2018-02-22T12:18:33.960Z,95.80
2018-02-22T12:19:36.488Z,96.00
2018-02-22T12:20:39.054Z,96.20
2018-02-22T12:21:41.566Z,96.10
2018-02-22T12:22:44.872Z,95.70
2018-02-22T12:23:48.426Z,95.70
2018-02-22T12:24:50.952Z,95.70
2018-02-22T12:25:54.095Z,95.50
2018-02-22T12:26:56.561Z,94.90
2018-02-22T12:27:59.107Z,94.80
2018-02-22T12:29:01.646Z,94.30
2018-02-22T12:30:04.146Z,94.70
2018-02-22T12:31:07.451Z,94.60
2018-02-22T12:32:09.929Z,94.50
2018-02-22T12:33:13.169Z,94.90
2018-02-22T12:34:15.677Z,93.80
2018-02-22T12:35:18.186Z,93.60
2018-02-22T12:36:21.442Z,93.00
2018-02-22T12:37:24.518Z,93.00
2018-02-22T12:38:27.055Z,93.60
2018-02-22T12:39:29.534Z,93.50
2018-02-22T12:40:32.028Z,93.90
2018-02-22T12:41:35.325Z,93.80
2018-02-22T12:42:37.806Z,93.90
2018-02-22T12:43:41.179Z,93.40
2018-02-22T12:44:43.656Z,93.30
2018-02-22T12:45:46.226Z,92.50
2018-02-22T12:46:48.696Z,92.70
2018-02-22T12:47:51.154Z,92.80
2018-02-22T12:48:54.412Z,94.40
2018-02-22T12:49:56.988Z,94.40
2018-02-22T12:51:00.293Z,93.50
2018-02-22T12:52:02.834Z,93.20
2018-02-22T12:53:05.338Z,94.00
2018-02-22T12:54:07.822Z,94.60
2018-02-22T12:55:10.934Z,94.40
2018-02-22T12:56:13.415Z,94.30
2018-02-22T12:57:16.666Z,94.70
2018-02-22T12:58:19.244Z,94.70
2018-02-22T12:59:22.016Z,94.50
2018-02-22T13:00:25.268Z,95.40
2018-02-22T13:01:27.771Z,95.40
2018-02-22T13:02:30.995Z,95.80
2018-02-22T13:03:34.239Z,95.80
2018-02-22T13:04:36.719Z,95.80
2018-02-22T13:05:39.234Z,96.70
2018-02-22T13:06:41.754Z,96.70
2018-02-22T13:07:44.268Z,95.80
2018-02-22T13:08:47.544Z,96.50
2018-02-22T13:09:50.002Z,96.40
2018-02-22T13:10:52.453Z,96.80
2018-02-22T13:11:55.813Z,97.00
2018-02-22T13:12:58.399Z,97.00
2018-02-22T13:14:00.903Z,97.30
2018-02-22T13:15:04.226Z,97.50
2018-02-22T13:16:06.818Z,97.10
2018-02-22T13:17:10.083Z,96.90
2018-02-22T13:18:12.594Z,96.90
2018-02-22T13:19:15.823Z,98.10
2018-02-22T13:20:18.286Z,98.10
2018-02-22T13:21:20.837Z,97.80
2018-02-22T13:22:23.329Z,97.90
2018-02-22T13:23:25.800Z,97.30
2018-02-22T13:24:28.295Z,97.40
2018-02-22T13:25:31.568Z,98.10
2018-02-22T13:26:34.064Z,98.60
2018-02-22T13:27:36.602Z,98.60
2018-02-22T13:28:39.102Z,98.00